Riverton, Vermont
Current Conditions -  °F | °C
As of 1:03 PM on Sunday 25 Jan 2015 (Local Time) from KMPV Reporting Station
Overcast Overcast  
Wind Chill: -3°   Ceiling: 2800
Heat Index: 11°   Visibility: 10mi
Dew Point:   Wind: 12mph
Humidity: 64%   Direction: 330°NNW
Pressure: 29.71"   Gusts: 21mph
Location:  44.1563°N, 72.6732°W
Report Text: KMPV 251803Z AUTO 33010G18KT 10SM BKN028 OVC036 M12/M17 A2971 RMK AO2 T11171172
Loading
Personal Weather Stations






























Interactive Weather Map New forecast layout! Learn more

10-Day Weather Forecast

Advertisements
Track Severe Weather on mobile